Brunswick, North Carolina
Current Conditions -  °F | °C
As of 4:15 AM on Sunday 21 Dec 2014 (Local Time) from KCPC Reporting Station
Overcast Overcast  
Wind Chill: 39°   Ceiling: 7000
Heat Index: 39°   Visibility: 10mi
Dew Point: 35°   Wind: 3mph
Humidity: 85%   Direction: 20°NNE
Pressure: 30.23"   Gusts: NA
Location:  34.29°N, 78.7°W
Report Text: KCPC 210915Z AUTO 02003KT 10SM SCT060 BKN070 OVC080 04/02 A3023 RMK AO2 T00400017
Loading
Personal Weather Stations






























Interactive Weather Map New forecast layout! Learn more

10-Day Weather Forecast

Advertisements
Track Severe Weather on mobile